Time;durP1;ratioP1;P1;durP2;ratioP2;P2;SDS_P1;SDS_P2;PMS_P1;PMS_P2;Temp;Humidity;BMP_temperature;BMP_pressure;BME280_temperature;BME280_humidity;BME280_pressure;Samples;Min_cycle;Max_cycle;Signal;HPM_P1;HPM_P2
2022/09/29 00:00:07;;;;;;;4.15;2.72;;;;;;;-140.72;100.00;53026.03;5003953;28;20029;-71
2022/09/29 00:02:33;;;;;;;2.17;1.65;;;;;;;-140.72;100.00;53007.75;5049129;28;20025;-71
2022/09/29 00:04:58;;;;;;;3.25;2.10;;;;;;;-140.72;100.00;53003.69;5010176;28;20029;-71
2022/09/29 00:07:23;;;;;;;3.75;2.08;;;;;;;-140.72;100.00;53036.16;5023701;28;20033;-71
2022/09/29 00:09:49;;;;;;;3.40;2.40;;;;;;;-140.72;100.00;53062.56;5013942;28;20030;-71
2022/09/29 00:12:14;;;;;;;3.65;2.53;;;;;;;-140.72;100.00;53028.06;5042923;28;20033;-72
2022/09/29 00:14:39;;;;;;;4.57;2.53;;;;;;;-140.72;100.00;53003.69;5040172;28;20440;-71
2022/09/29 00:17:05;;;;;;;3.67;2.53;;;;;;;-140.72;100.00;53024.00;5014510;28;20026;-70
2022/09/29 00:19:32;;;;;;;4.65;2.35;;;;;;;-140.72;100.00;53024.00;4996824;28;20436;-70
2022/09/29 00:21:58;;;;;;;3.15;2.00;;;;;;;-140.72;100.00;53021.97;4993724;28;20181;-71
2022/09/29 00:24:24;;;;;;;2.90;2.22;;;;;;;-140.72;100.00;53042.25;5009807;28;20061;-70
2022/09/29 00:26:49;;;;;;;4.05;2.58;;;;;;;-140.72;100.00;53036.16;5007290;28;20030;-70
2022/09/29 00:29:14;;;;;;;4.15;3.20;;;;;;;-140.72;100.00;53040.22;4992537;28;20140;-70
2022/09/29 00:31:45;;;;;;;4.25;2.60;;;;;;;-140.72;100.00;53058.50;4999335;28;20182;-70
2022/09/29 00:34:10;;;;;;;3.25;2.60;;;;;;;-140.72;100.00;53040.22;5016970;28;20036;-71
2022/09/29 00:36:37;;;;;;;3.08;2.17;;;;;;;-140.72;100.00;53024.00;5048970;28;20132;-70
2022/09/29 00:39:03;;;;;;;4.00;2.67;;;;;;;-140.72;100.00;53026.03;5000401;28;20029;-69
2022/09/29 00:41:34;;;;;;;2.42;2.05;;;;;;;-140.72;100.00;53042.25;4995895;28;20488;-70
2022/09/29 00:44:12;;;;;;;2.63;2.13;;;;;;;-140.72;100.00;53048.34;4995564;28;20100;-70
2022/09/29 00:47:04;;;;;;;2.75;2.05;;;;;;;-140.72;100.00;53005.72;4998146;28;20038;-70
2022/09/29 00:49:44;;;;;;;3.60;1.90;;;;;;;-140.72;100.00;53011.81;4994852;28;20048;-70
2022/09/29 00:52:24;;;;;;;6.13;3.50;;;;;;;-140.72;100.00;53052.41;5013844;28;20054;-70
2022/09/29 00:54:55;;;;;;;5.22;3.90;;;;;;;-140.72;100.00;53095.03;4997577;28;20188;-70
2022/09/29 00:57:25;;;;;;;4.80;3.00;;;;;;;-140.72;100.00;53024.00;5015266;28;20213;-70
2022/09/29 01:00:22;;;;;;;3.33;3.03;;;;;;;-140.72;100.00;53068.66;5009289;28;20109;-70
2022/09/29 01:02:54;;;;;;;4.60;3.22;;;;;;;-140.72;100.00;53036.16;5009222;28;20037;-70
2022/09/29 01:05:27;;;;;;;4.05;3.00;;;;;;;-140.72;100.00;53040.22;4994637;28;20069;-70
2022/09/29 01:07:53;;;;;;;6.45;2.85;;;;;;;-140.72;100.00;53034.16;5011618;28;20041;-70
2022/09/29 01:10:19;;;;;;;4.53;3.22;;;;;;;-140.72;100.00;53058.50;5016739;28;20030;-70
2022/09/29 01:12:46;;;;;;;4.60;3.22;;;;;;;-140.72;100.00;53052.41;5007269;28;20025;-70
2022/09/29 01:15:18;;;;;;;4.60;3.15;;;;;;;-140.72;100.00;53044.28;5011959;28;20147;-70
2022/09/29 01:17:44;;;;;;;4.72;3.50;;;;;;;-140.72;100.00;53030.09;4999792;28;20478;-70
2022/09/29 01:20:17;;;;;;;5.88;3.80;;;;;;;-140.72;100.00;53056.47;4999984;28;20028;-70
2022/09/29 01:23:08;;;;;;;3.97;2.72;;;;;;;-140.72;100.00;53048.34;5000539;28;20069;-70
2022/09/29 01:25:39;;;;;;;11.20;3.25;;;;;;;-140.72;100.00;53013.84;5034472;28;20095;-71
2022/09/29 01:28:25;;;;;;;5.28;3.70;;;;;;;-140.72;100.00;53030.09;5014492;28;20029;-71
2022/09/29 01:31:13;;;;;;;6.07;3.95;;;;;;;-140.72;100.00;53062.56;5012195;28;20148;-70
2022/09/29 01:33:45;;;;;;;4.80;3.60;;;;;;;-140.72;100.00;53056.47;5017816;28;20021;-70
2022/09/29 01:36:19;;;;;;;5.07;3.33;;;;;;;-140.72;100.00;53028.06;5032348;28;20060;-71
2022/09/29 01:39:11;;;;;;;5.22;3.67;;;;;;;-140.72;100.00;53052.41;5001330;28;20065;-71
2022/09/29 01:41:48;;;;;;;7.32;4.18;;;;;;;-140.72;100.00;53080.81;5032618;28;20029;-71
2022/09/29 01:44:20;;;;;;;6.72;4.00;;;;;;;-140.72;100.00;53074.72;5000007;28;20099;-70
2022/09/29 01:46:56;;;;;;;6.18;4.05;;;;;;;-140.72;100.00;53034.16;4994258;28;20030;-71
2022/09/29 01:49:26;;;;;;;5.13;3.42;;;;;;;-140.72;100.00;53040.22;4979732;28;20041;-70
2022/09/29 01:52:05;;;;;;;3.92;3.03;;;;;;;-140.72;100.00;52989.50;5016591;28;20482;-70
2022/09/29 01:54:53;;;;;;;7.70;4.05;;;;;;;-140.72;100.00;53048.34;5028531;28;20037;-70
2022/09/29 01:57:44;;;;;;;7.28;4.38;;;;;;;-140.72;100.00;53060.53;5011255;28;20045;-70
2022/09/29 02:00:12;;;;;;;5.88;3.97;;;;;;;-140.72;100.00;53058.50;5011487;28;20046;-71
2022/09/29 02:02:51;;;;;;;5.45;4.43;;;;;;;-140.72;100.00;53038.19;5017338;28;20116;-71
2022/09/29 02:05:23;;;;;;;5.50;4.03;;;;;;;-140.72;100.00;53036.16;4998841;28;20166;-71
2022/09/29 02:07:49;;;;;;;5.88;4.38;;;;;;;-140.72;100.00;53032.13;4999469;28;20029;-70
2022/09/29 02:10:24;;;;;;;7.22;5.32;;;;;;;-140.72;100.00;53028.06;5016969;28;20034;-70
2022/09/29 02:12:53;;;;;;;8.30;5.80;;;;;;;-140.72;100.00;53050.38;4999328;28;20385;-70
2022/09/29 02:15:35;;;;;;;8.80;5.15;;;;;;;-140.72;100.00;53026.03;5003810;28;20033;-70
2022/09/29 02:18:20;;;;;;;6.30;4.75;;;;;;;-140.72;100.00;53060.53;4999987;28;20064;-71
2022/09/29 02:20:47;;;;;;;6.35;4.35;;;;;;;-140.72;100.00;53064.59;5027598;28;20129;-70
2022/09/29 02:23:13;;;;;;;6.35;4.82;;;;;;;-140.72;100.00;53072.69;4996983;28;20034;-69
2022/09/29 02:25:39;;;;;;;5.68;4.68;;;;;;;-140.72;100.00;53005.72;5016217;28;20052;-70
2022/09/29 02:28:06;;;;;;;7.57;5.05;;;;;;;-140.72;100.00;53064.59;5016218;28;20026;-70
2022/09/29 02:30:33;;;;;;;5.47;3.72;;;;;;;-140.72;100.00;53044.28;4996875;28;20029;-70
2022/09/29 02:32:58;;;;;;;5.97;4.72;;;;;;;-140.72;100.00;53044.28;5018558;28;20038;-70
2022/09/29 02:35:31;;;;;;;7.10;4.80;;;;;;;-140.72;100.00;53042.25;4987017;28;20110;-70
2022/09/29 02:38:07;;;;;;;6.18;4.63;;;;;;;-140.72;100.00;53072.69;4985032;28;20042;-71
2022/09/29 02:40:52;;;;;;;6.90;4.95;;;;;;;-140.72;100.00;53068.66;4995608;28;20164;-71
2022/09/29 02:43:48;;;;;;;8.30;4.55;;;;;;;-140.72;100.00;53030.09;4996729;28;20091;-70
2022/09/29 02:46:50;;;;;;;5.65;4.53;;;;;;;-140.72;100.00;53088.94;4995116;28;20033;-70
2022/09/29 02:49:44;;;;;;;6.57;5.15;;;;;;;-140.72;100.00;53052.41;4998921;28;20026;-70
2022/09/29 02:52:51;;;;;;;5.90;4.28;;;;;;;-140.72;100.00;53044.28;4988612;28;20174;-70
2022/09/29 02:55:34;;;;;;;7.38;5.70;;;;;;;-140.72;100.00;53048.34;4927030;29;20035;-70
2022/09/29 02:58:37;;;;;;;7.28;5.40;;;;;;;-140.72;100.00;53005.72;4996224;28;20105;-70
2022/09/29 03:01:04;;;;;;;7.25;5.18;;;;;;;-140.72;100.00;53062.56;4988736;28;20066;-70
2022/09/29 03:03:30;;;;;;;8.45;6.43;;;;;;;-140.72;100.00;53028.06;4995124;28;20027;-70
2022/09/29 03:05:55;;;;;;;8.98;5.85;;;;;;;-140.72;100.00;53068.66;5029585;28;20026;-70
2022/09/29 03:08:20;;;;;;;8.50;6.13;;;;;;;-140.72;100.00;53052.41;4999109;28;20034;-70
2022/09/29 03:10:46;;;;;;;8.10;6.22;;;;;;;-140.72;100.00;53084.88;4997932;28;20172;-70
2022/09/29 03:13:11;;;;;;;9.75;5.85;;;;;;;-140.72;100.00;53080.81;4995565;28;20027;-70
2022/09/29 03:15:36;;;;;;;14.43;7.43;;;;;;;-140.72;100.00;53078.78;4994591;28;20026;-70
2022/09/29 03:18:03;;;;;;;8.98;5.88;;;;;;;-140.72;100.00;53060.53;4985368;28;20074;-70
2022/09/29 03:20:28;;;;;;;7.82;6.50;;;;;;;-140.72;100.00;53048.34;4982329;28;20041;-70
2022/09/29 03:22:57;;;;;;;8.50;6.43;;;;;;;-140.72;100.00;53060.53;4994435;28;20019;-70
2022/09/29 03:25:23;;;;;;;7.20;5.47;;;;;;;-140.72;100.00;53088.94;4988237;28;20098;-70
2022/09/29 03:27:50;;;;;;;6.55;5.70;;;;;;;-140.72;100.00;53066.63;4974668;28;20053;-70
2022/09/29 03:30:16;;;;;;;9.32;6.95;;;;;;;-140.72;100.00;53064.59;4994049;28;20037;-70
2022/09/29 03:32:42;;;;;;;9.90;4.97;;;;;;;-140.72;100.00;53064.59;4980861;28;20030;-70
2022/09/29 03:35:09;;;;;;;8.23;5.13;;;;;;;-140.72;100.00;53084.88;4998788;28;20054;-71
2022/09/29 03:37:35;;;;;;;8.00;6.78;;;;;;;-140.72;100.00;53056.47;5001036;28;20027;-71
2022/09/29 03:40:00;;;;;;;7.75;5.72;;;;;;;-140.72;100.00;53038.19;5015117;28;20429;-70
2022/09/29 03:42:27;;;;;;;7.00;5.32;;;;;;;-140.72;100.00;53028.06;4997085;28;20052;-70
2022/09/29 03:44:52;;;;;;;7.38;5.78;;;;;;;-140.72;100.00;53026.03;5015929;28;20113;-71
2022/09/29 03:47:18;;;;;;;6.82;5.18;;;;;;;-140.72;100.00;53125.47;4995906;28;20057;-72
2022/09/29 03:49:43;;;;;;;7.72;4.47;;;;;;;-140.72;100.00;53103.16;5022751;28;20195;-71
2022/09/29 03:52:08;;;;;;;10.60;5.35;;;;;;;-140.72;100.00;53040.22;5002406;28;20019;-71
2022/09/29 03:54:34;;;;;;;7.43;5.97;;;;;;;-140.72;100.00;53090.97;5014341;28;20017;-71
2022/09/29 03:56:59;;;;;;;6.22;4.20;;;;;;;-140.72;100.00;53086.91;4986470;28;20509;-72
2022/09/29 03:59:25;;;;;;;6.05;4.60;;;;;;;-140.72;100.00;53024.00;4991364;28;20034;-71
2022/09/29 04:01:50;;;;;;;5.35;4.32;;;;;;;-140.72;100.00;53066.63;4989409;28;20030;-71
2022/09/29 04:04:15;;;;;;;5.55;4.28;;;;;;;-140.72;100.00;53052.41;5027338;28;20489;-71
2022/09/29 04:06:44;;;;;;;8.40;4.35;;;;;;;-140.72;100.00;53050.38;5000400;28;20053;-71
2022/09/29 04:09:09;;;;;;;5.30;3.63;;;;;;;-140.72;100.00;53066.63;4997697;28;20109;-72
2022/09/29 04:11:35;;;;;;;6.32;3.72;;;;;;;-140.72;100.00;53044.28;5017676;28;20033;-74
2022/09/29 04:14:01;;;;;;;4.22;3.28;;;;;;;-140.72;100.00;53088.94;5008894;28;20037;-70
2022/09/29 04:16:27;;;;;;;4.00;3.42;;;;;;;-140.72;100.00;53028.06;5002939;28;20532;-70
2022/09/29 04:18:52;;;;;;;6.32;3.63;;;;;;;-140.72;100.00;53054.44;5017529;28;20037;-70
2022/09/29 04:21:17;;;;;;;6.00;4.38;;;;;;;-140.72;100.00;53103.16;5032696;28;20067;-70
2022/09/29 04:23:43;;;;;;;4.80;3.42;;;;;;;-140.72;100.00;53036.16;4999176;28;20057;-70
2022/09/29 04:26:08;;;;;;;5.72;4.25;;;;;;;-140.72;100.00;53084.88;4996943;28;20038;-70
2022/09/29 04:28:35;;;;;;;4.72;3.60;;;;;;;-140.72;100.00;53078.78;4999315;28;20097;-70
2022/09/29 04:31:01;;;;;;;7.20;4.70;;;;;;;-140.72;100.00;53072.69;5016083;28;20034;-70
2022/09/29 04:33:28;;;;;;;4.85;3.85;;;;;;;-140.72;100.00;53040.22;5000595;28;20496;-70
2022/09/29 04:35:54;;;;;;;8.57;4.55;;;;;;;-140.72;100.00;53060.53;4997508;28;20160;-70
2022/09/29 04:38:19;;;;;;;6.60;4.30;;;;;;;-140.72;100.00;53090.97;4993953;28;20045;-70
2022/09/29 04:40:46;;;;;;;4.40;3.88;;;;;;;-140.72;100.00;53078.78;4991527;28;20589;-70
2022/09/29 04:43:12;;;;;;;4.72;3.70;;;;;;;-140.72;100.00;53048.34;4996056;28;20026;-70
2022/09/29 04:45:37;;;;;;;7.00;3.83;;;;;;;-140.72;100.00;53060.53;5013786;28;20350;-71
2022/09/29 04:48:03;;;;;;;6.55;4.38;;;;;;;-140.72;100.00;53084.88;4999062;28;20030;-76
2022/09/29 04:50:50;;;;;;;6.88;3.90;;;;;;;-140.72;100.00;53093.00;5002078;28;20492;-70
2022/09/29 04:53:16;;;;;;;5.97;4.90;;;;;;;-140.72;100.00;53076.75;5000677;28;20029;-71
2022/09/29 04:55:41;;;;;;;6.20;4.85;;;;;;;-140.72;100.00;53078.78;5038387;28;20010;-73
2022/09/29 04:58:38;;;;;;;5.93;4.35;;;;;;;-140.72;100.00;53084.88;5018370;28;20037;-72
2022/09/29 05:01:05;;;;;;;7.78;5.35;;;;;;;-140.72;100.00;53046.31;5006381;28;20030;-70
2022/09/29 05:03:31;;;;;;;9.63;5.22;;;;;;;-140.72;100.00;53105.19;5015870;28;20025;-72
2022/09/29 05:05:56;;;;;;;7.07;5.05;;;;;;;-140.72;100.00;53072.69;5000994;28;20033;-70
2022/09/29 05:08:21;;;;;;;6.63;5.03;;;;;;;-140.72;100.00;53088.94;5000516;28;20034;-72
2022/09/29 05:10:47;;;;;;;6.28;4.80;;;;;;;-140.72;100.00;53113.28;5024878;28;20116;-72
2022/09/29 05:13:12;;;;;;;6.20;4.70;;;;;;;-140.72;100.00;53036.16;4997949;28;20036;-71
2022/09/29 05:15:37;;;;;;;9.32;5.22;;;;;;;-140.72;100.00;53076.75;4996022;28;20076;-71
2022/09/29 05:18:03;;;;;;;6.43;4.60;;;;;;;-140.72;100.00;53086.91;5010942;28;20038;-71
2022/09/29 05:20:28;;;;;;;6.93;5.40;;;;;;;-140.72;100.00;53095.03;5013677;28;20031;-71
2022/09/29 05:22:56;;;;;;;7.63;5.90;;;;;;;-140.72;100.00;53060.53;5025610;28;20031;-71
2022/09/29 05:25:21;;;;;;;6.03;4.55;;;;;;;-140.72;100.00;53072.69;5002236;28;20037;-70
2022/09/29 05:27:46;;;;;;;6.95;5.50;;;;;;;-140.72;100.00;53064.59;4991314;28;20038;-70
2022/09/29 05:30:12;;;;;;;5.07;4.53;;;;;;;-140.72;100.00;53070.69;5011446;28;20289;-71
2022/09/29 05:32:37;;;;;;;6.72;5.03;;;;;;;-140.72;100.00;53054.44;4999303;28;20444;-72
2022/09/29 05:35:03;;;;;;;8.32;5.25;;;;;;;-140.72;100.00;53093.00;4997421;28;20489;-71
2022/09/29 05:37:28;;;;;;;6.68;4.45;;;;;;;-140.72;100.00;53064.59;4995337;28;20455;-72
2022/09/29 05:40:03;;;;;;;7.05;4.70;;;;;;;-140.72;100.00;53070.69;5014146;28;20380;-72
2022/09/29 05:42:29;;;;;;;6.78;5.10;;;;;;;-140.72;100.00;53080.81;5024913;28;20041;-72
2022/09/29 05:44:54;;;;;;;6.80;5.00;;;;;;;-140.72;100.00;53024.00;4998822;28;20037;-71
2022/09/29 05:47:19;;;;;;;5.65;4.07;;;;;;;-140.72;100.00;53105.19;4991680;28;20033;-72
2022/09/29 05:49:45;;;;;;;6.05;4.50;;;;;;;-140.72;100.00;53072.69;5015180;28;20104;-72
2022/09/29 05:52:10;;;;;;;7.30;4.63;;;;;;;-140.72;100.00;53105.19;4996897;28;20477;-72
2022/09/29 05:54:38;;;;;;;8.07;5.10;;;;;;;-140.72;100.00;53058.50;4996842;28;20402;-72
2022/09/29 05:57:04;;;;;;;5.07;4.43;;;;;;;-140.72;100.00;53042.25;5000473;28;20053;-72
2022/09/29 05:59:29;;;;;;;6.90;5.15;;;;;;;-140.72;100.00;53072.69;5011739;28;20030;-73
2022/09/29 06:01:54;;;;;;;9.00;5.32;;;;;;;-140.72;100.00;53093.00;5012547;28;20091;-72
2022/09/29 06:04:20;;;;;;;8.45;4.82;;;;;;;-140.72;100.00;53072.69;5046941;28;20010;-72
2022/09/29 06:06:47;;;;;;;7.80;4.50;;;;;;;-140.72;100.00;53074.72;5016210;28;20076;-72
2022/09/29 06:09:12;;;;;;;8.20;5.28;;;;;;;-140.72;100.00;53062.56;5008155;28;20023;-73
2022/09/29 06:11:38;;;;;;;6.65;4.35;;;;;;;-140.72;100.00;53099.09;5024065;28;20049;-72
2022/09/29 06:14:04;;;;;;;8.20;5.43;;;;;;;-140.72;100.00;53048.34;5030649;28;20405;-73
2022/09/29 06:16:31;;;;;;;6.25;5.43;;;;;;;-140.72;100.00;53040.22;4996982;28;20025;-72
2022/09/29 06:18:58;;;;;;;5.78;4.55;;;;;;;-140.72;100.00;53056.47;4996092;28;20398;-71
2022/09/29 06:21:26;;;;;;;5.22;4.00;;;;;;;-140.72;100.00;53097.06;5013399;28;20061;-71
2022/09/29 06:23:54;;;;;;;3.83;3.47;;;;;;;-140.72;100.00;53058.50;4992195;28;20026;-71
2022/09/29 06:26:20;;;;;;;4.22;3.47;;;;;;;-140.72;100.00;53060.53;5002299;28;20034;-71
2022/09/29 06:28:46;;;;;;;4.60;3.95;;;;;;;-140.72;100.00;53080.81;5022610;28;20066;-72
2022/09/29 06:31:20;;;;;;;5.22;4.15;;;;;;;-140.72;100.00;53028.06;5003807;28;20481;-72
2022/09/29 06:33:45;;;;;;;7.32;3.75;;;;;;;-140.72;100.00;53048.34;5012973;28;20033;-71
2022/09/29 06:39:08;;;;;;;6.57;3.00;;;;;;;-140.72;100.00;53052.41;5003254;28;20114;-71
2022/09/29 06:41:34;;;;;;;4.93;3.45;;;;;;;-140.72;100.00;53082.84;5027386;28;20045;-72
2022/09/29 06:44:00;;;;;;;4.13;3.53;;;;;;;-140.72;100.00;53036.16;4995154;28;20124;-71
2022/09/29 06:46:26;;;;;;;7.55;3.92;;;;;;;-140.72;100.00;53058.50;5012580;28;20041;-71
2022/09/29 06:48:55;;;;;;;5.45;4.45;;;;;;;-140.72;100.00;53040.22;5013082;28;20034;-72
2022/09/29 06:51:22;;;;;;;8.23;3.33;;;;;;;-140.72;100.00;53082.84;5015786;28;20082;-72
2022/09/29 06:53:48;;;;;;;4.88;3.88;;;;;;;-140.72;100.00;53028.06;4987258;28;20030;-71
2022/09/29 06:56:14;;;;;;;4.03;3.60;;;;;;;-140.72;100.00;53048.34;5004732;28;20038;-72
2022/09/29 06:58:39;;;;;;;11.88;4.32;;;;;;;-140.72;100.00;53050.38;5006633;28;20037;-72
2022/09/29 07:01:04;;;;;;;5.28;3.85;;;;;;;-140.72;100.00;53028.06;4987449;28;20029;-70
2022/09/29 07:03:30;;;;;;;8.05;4.10;;;;;;;-140.72;100.00;53062.56;4989000;28;20050;-71
2022/09/29 07:05:56;;;;;;;4.15;3.53;;;;;;;-140.72;100.00;53032.13;4983502;28;20030;-71
2022/09/29 07:08:21;;;;;;;6.53;4.97;;;;;;;-140.72;100.00;53009.78;4984508;28;20034;-71
2022/09/29 07:10:47;;;;;;;7.07;4.75;;;;;;;-140.72;100.00;53015.88;5005088;28;20113;-76
2022/09/29 07:13:12;;;;;;;5.03;3.95;;;;;;;-140.72;100.00;53028.06;4993895;28;20116;-69
2022/09/29 07:15:37;;;;;;;4.68;3.60;;;;;;;-140.72;100.00;53028.06;4990188;28;20183;-71
2022/09/29 07:18:03;;;;;;;5.32;4.55;;;;;;;-140.72;100.00;53013.84;5001517;28;20069;-71
2022/09/29 07:20:32;;;;;;;7.72;5.18;;;;;;;-140.72;100.00;53015.88;5002480;28;20087;-71
2022/09/29 07:22:58;;;;;;;7.17;6.00;;;;;;;-140.72;100.00;53038.19;5001591;28;20129;-71
2022/09/29 07:25:24;;;;;;;6.13;4.97;;;;;;;-140.72;100.00;53003.69;4991479;28;20646;-72
2022/09/29 07:27:50;;;;;;;6.18;5.57;;;;;;;-140.72;100.00;53013.84;4999829;28;20136;-71
2022/09/29 07:30:16;;;;;;;7.53;5.97;;;;;;;-140.72;100.00;53015.88;5008368;28;20469;-72
2022/09/29 07:32:42;;;;;;;6.88;5.75;;;;;;;-140.72;100.00;53060.53;4985933;28;20046;-72
2022/09/29 07:35:07;;;;;;;6.07;5.30;;;;;;;-140.72;100.00;53038.19;4983260;28;20446;-72
2022/09/29 07:37:32;;;;;;;7.63;6.05;;;;;;;-140.72;100.00;53015.88;5010289;28;20064;-72
2022/09/29 07:39:58;;;;;;;9.32;6.07;;;;;;;-140.72;100.00;53028.06;4985026;28;20057;-72
2022/09/29 07:42:24;;;;;;;7.25;6.50;;;;;;;-140.72;100.00;52979.34;5002377;28;20025;-71
2022/09/29 07:44:49;;;;;;;6.43;5.60;;;;;;;-140.72;100.00;53011.81;4996763;28;20026;-71
2022/09/29 07:47:14;;;;;;;7.38;5.45;;;;;;;-140.72;100.00;53007.75;5000494;28;20105;-72
2022/09/29 07:49:40;;;;;;;6.97;5.97;;;;;;;-140.72;100.00;52991.53;4988355;28;20113;-71
2022/09/29 07:52:06;;;;;;;8.93;6.82;;;;;;;-140.72;100.00;52969.19;5004738;28;20049;-71
2022/09/29 07:54:31;;;;;;;6.10;5.50;;;;;;;-140.72;100.00;53007.75;5009131;28;20116;-72
2022/09/29 07:56:59;;;;;;;7.80;6.13;;;;;;;-140.72;100.00;53011.81;5017420;28;20029;-72
2022/09/29 07:59:25;;;;;;;7.32;6.50;;;;;;;-140.72;100.00;53013.84;5008295;28;20109;-71
2022/09/29 08:01:51;;;;;;;10.35;6.32;;;;;;;-140.72;100.00;53019.94;5002498;28;20453;-72
2022/09/29 08:04:16;;;;;;;9.63;7.47;;;;;;;-140.72;100.00;52975.28;4987397;28;20122;-72
2022/09/29 08:06:42;;;;;;;8.38;6.43;;;;;;;-140.72;100.00;52979.34;4985220;28;20405;-72
2022/09/29 08:09:07;;;;;;;15.13;7.18;;;;;;;-140.72;100.00;52971.22;5005612;28;20045;-73
2022/09/29 08:11:37;;;;;;;10.13;7.85;;;;;;;-140.72;100.00;53024.00;5005340;28;20474;-72
2022/09/29 08:14:03;;;;;;;;;;;;;;;-140.72;100.00;52995.59;5003417;28;20061;-72
2022/09/29 08:16:29;;;;;;;10.20;7.75;;;;;;;-140.72;100.00;52969.19;5002901;28;19954;-72
2022/09/29 08:18:54;;;;;;;11.25;8.15;;;;;;;-140.72;100.00;52969.19;4998120;28;20030;-72
2022/09/29 08:21:20;;;;;;;11.43;8.80;;;;;;;-140.72;100.00;52995.59;5002562;28;20026;-72
2022/09/29 08:23:45;;;;;;;8.73;6.85;;;;;;;-140.72;100.00;52991.53;4989725;28;20088;-72
2022/09/29 08:26:13;;;;;;;9.35;7.35;;;;;;;-140.72;100.00;52977.31;5009173;28;20050;-72
2022/09/29 08:28:39;;;;;;;8.68;7.68;;;;;;;-140.72;100.00;52999.66;5001750;28;20022;-72
2022/09/29 08:31:11;;;;;;;8.85;6.80;;;;;;;-140.72;100.00;53011.81;5012028;28;20109;-72
2022/09/29 08:33:37;;;;;;;7.72;6.88;;;;;;;-140.72;100.00;53009.78;5000383;28;20026;-72
2022/09/29 08:36:13;;;;;;;9.52;6.63;;;;;;;-140.72;100.00;53007.75;5006641;28;20122;-72
2022/09/29 08:38:42;;;;;;;10.50;7.97;;;;;;;-140.72;100.00;52967.16;5007230;28;20026;-72
2022/09/29 08:41:35;;;;;;;9.15;7.43;;;;;;;-140.72;100.00;53034.16;5017321;28;20524;-72
2022/09/29 08:44:39;;;;;;;10.07;6.88;;;;;;;-140.72;100.00;52967.16;5003147;28;20097;-72
2022/09/29 08:47:34;;;;;;;8.48;6.78;;;;;;;-140.72;100.00;52977.31;5013687;28;20026;-72
2022/09/29 08:50:04;;;;;;;8.40;7.10;;;;;;;-140.72;100.00;52934.69;5009279;28;20029;-72
2022/09/29 08:52:34;;;;;;;8.57;7.03;;;;;;;-140.72;100.00;52969.19;4988486;28;20108;-72
2022/09/29 08:55:12;;;;;;;10.50;7.45;;;;;;;-140.72;100.00;52963.13;5002438;28;20022;-72
2022/09/29 08:57:38;;;;;;;14.43;7.53;;;;;;;-140.72;100.00;52948.91;5001822;28;20481;-72
2022/09/29 09:00:06;;;;;;;10.32;7.60;;;;;;;-140.72;100.00;52952.97;4994769;28;20030;-72
2022/09/29 09:02:44;;;;;;;9.75;7.20;;;;;;;-140.72;100.00;52942.81;5006690;28;20920;-72
2022/09/29 09:05:36;;;;;;;7.93;6.72;;;;;;;-140.72;100.00;52936.72;5015148;28;20053;-72
2022/09/29 09:08:20;;;;;;;7.68;6.40;;;;;;;-140.72;100.00;52922.53;4997248;28;20026;-72
2022/09/29 09:11:14;;;;;;;8.48;7.55;;;;;;;-140.72;100.00;52944.84;4994993;28;20516;-72
2022/09/29 09:13:58;;;;;;;9.50;6.65;;;;;;;-140.72;100.00;52944.84;5014617;28;20033;-72
2022/09/29 09:16:39;;;;;;;8.50;7.60;;;;;;;-140.72;100.00;52914.41;4999954;28;20351;-72
2022/09/29 09:19:10;;;;;;;8.13;6.57;;;;;;;-140.72;100.00;52944.84;5009140;28;20064;-72
2022/09/29 09:21:46;;;;;;;7.18;6.32;;;;;;;-140.72;100.00;52963.13;4995190;28;20030;-72
2022/09/29 09:24:20;;;;;;;6.90;5.78;;;;;;;-140.72;100.00;52926.59;4994735;28;20026;-72
2022/09/29 09:26:46;;;;;;;8.57;7.45;;;;;;;-140.72;100.00;52932.66;5014391;28;20103;-72
2022/09/29 09:29:31;;;;;;;7.20;5.63;;;;;;;-140.72;100.00;52950.94;5005780;28;20481;-72
2022/09/29 09:32:00;;;;;;;6.13;5.32;;;;;;;-140.72;100.00;52928.63;5006706;28;20045;-72
2022/09/29 09:34:29;;;;;;;6.70;5.38;;;;;;;-140.72;100.00;52946.88;4981296;28;20026;-72
2022/09/29 09:37:10;;;;;;;7.63;5.82;;;;;;;-140.72;100.00;52928.63;5001588;28;20074;-72
2022/09/29 09:39:53;;;;;;;7.03;5.50;;;;;;;-140.72;100.00;52904.25;5007463;28;20030;-72
2022/09/29 09:42:26;;;;;;;6.05;4.70;;;;;;;-140.72;100.00;52920.50;4998600;28;20057;-72
2022/09/29 09:44:57;;;;;;;6.00;4.25;;;;;;;-140.72;100.00;52940.78;4996174;28;20026;-72
2022/09/29 09:47:45;;;;;;;7.15;4.85;;;;;;;-140.72;100.00;52930.66;5010239;28;20026;-72
2022/09/29 09:50:14;;;;;;;5.45;4.40;;;;;;;-140.72;100.00;52926.59;5002797;28;20151;-72
2022/09/29 09:53:10;;;;;;;6.28;4.50;;;;;;;-140.72;100.00;52898.16;5003718;28;20473;-72
2022/09/29 09:55:36;;;;;;;4.80;3.35;;;;;;;-140.72;100.00;52894.13;5020795;28;20038;-72
2022/09/29 09:58:25;;;;;;;4.80;3.78;;;;;;;-140.72;100.00;52890.06;5006053;28;20029;-72
2022/09/29 10:00:57;;;;;;;3.75;3.03;;;;;;;-140.72;100.00;52877.88;5001174;28;20034;-72
2022/09/29 10:03:22;;;;;;;4.65;3.17;;;;;;;-140.72;100.00;52906.28;5005770;28;20025;-72
2022/09/29 10:05:49;;;;;;;4.38;3.38;;;;;;;-140.72;100.00;52892.09;5000743;28;20062;-72
2022/09/29 10:08:41;;;;;;;3.15;2.40;;;;;;;-140.72;100.00;52883.97;4998493;28;20087;-72
2022/09/29 10:11:12;;;;;;;7.03;2.72;;;;;;;-140.72;100.00;52861.66;4994353;28;20037;-73
2022/09/29 10:13:37;;;;;;;3.47;2.25;;;;;;;-140.72;100.00;52894.13;5012863;28;20041;-71
2022/09/29 10:16:05;;;;;;;3.15;2.15;;;;;;;-140.72;100.00;52886.00;5012262;28;20026;-72
2022/09/29 10:18:40;;;;;;;3.63;2.10;;;;;;;-140.72;100.00;52821.06;5012336;28;20053;-72
2022/09/29 10:21:25;;;;;;;2.58;1.85;;;;;;;-140.72;100.00;52867.72;4994504;28;20026;-72
2022/09/29 10:23:55;;;;;;;3.83;2.33;;;;;;;-140.72;100.00;52879.91;4993665;28;20056;-72
2022/09/29 10:26:26;;;;;;;3.65;2.38;;;;;;;-140.72;100.00;52831.19;4995267;28;20026;-73
2022/09/29 10:28:52;;;;;;;2.70;2.05;;;;;;;-140.72;100.00;52817.00;5011497;28;20067;-72
2022/09/29 10:31:28;;;;;;;3.17;2.20;;;;;;;-140.72;100.00;52784.53;5012779;28;20036;-72
2022/09/29 10:34:14;;;;;;;2.90;2.10;;;;;;;-140.72;100.00;52823.09;5012074;28;20029;-72
2022/09/29 10:36:55;;;;;;;3.33;2.58;;;;;;;-140.72;100.00;52766.25;5011779;28;20108;-72
2022/09/29 10:39:44;;;;;;;2.97;2.03;;;;;;;-140.72;100.00;52788.59;4994896;28;20030;-72
2022/09/29 10:42:36;;;;;;;3.45;1.73;;;;;;;-140.72;100.00;52754.09;4984495;28;20030;-72
2022/09/29 10:45:20;;;;;;;2.17;1.42;;;;;;;-140.72;100.00;52679.00;4992940;28;20034;-71
2022/09/29 10:48:08;;;;;;;2.42;1.73;;;;;;;-140.72;100.00;52607.97;4998899;28;20031;-70
2022/09/29 10:50:46;;;;;;;2.03;1.58;;;;;;;-140.72;100.00;52569.44;5012490;28;20426;-71
2022/09/29 10:53:27;;;;;;;2.03;1.25;;;;;;;-140.72;100.00;52504.50;5012438;28;20022;-71
2022/09/29 10:55:55;;;;;;;1.80;0.93;;;;;;;-140.72;100.00;52484.19;4993902;28;20079;-71
2022/09/29 10:58:38;;;;;;;1.15;0.65;;;;;;;-140.72;0.00;52419.28;5009890;28;20041;-71
2022/09/29 11:01:13;;;;;;;1.50;0.75;;;;;;;-140.72;0.00;52435.50;5006327;28;20068;-71
2022/09/29 11:03:47;;;;;;;2.15;0.68;;;;;;;-140.72;0.00;52419.28;4993423;28;20078;-71
2022/09/29 11:06:13;;;;;;;1.08;0.80;;;;;;;-140.72;0.00;52370.56;4996210;28;20041;-71
2022/09/29 11:08:54;;;;;;;0.88;0.45;;;;;;;-140.72;0.00;52325.94;5008993;28;20030;-71
2022/09/29 11:11:25;;;;;;;0.80;0.40;;;;;;;-140.72;0.00;52293.47;5005037;28;20133;-71
2022/09/29 11:13:51;;;;;;;2.00;0.45;;;;;;;-140.72;0.00;52398.97;5008008;28;20473;-71
2022/09/29 11:16:20;;;;;;;0.65;0.40;;;;;;;-140.72;0.00;52498.41;5003560;28;20042;-71
2022/09/29 11:18:51;;;;;;;1.05;0.50;;;;;;;-140.72;0.00;52455.78;5004565;28;20069;-71
2022/09/29 11:21:22;;;;;;;1.55;0.70;;;;;;;-140.72;0.00;52417.25;5011605;28;20030;-71
2022/09/29 11:23:59;;;;;;;0.70;0.47;;;;;;;-140.72;0.00;52413.19;5007047;28;20378;-71
2022/09/29 11:26:49;;;;;;;1.92;0.50;;;;;;;-140.72;0.00;52520.72;5003790;28;20030;-71
2022/09/29 11:29:36;;;;;;;0.90;0.47;;;;;;;-140.72;0.00;52599.88;5008522;28;20113;-71